Alblasserdam, Netherlands
Current Conditions -  °F | °C
As of 11:55 AM on Friday 19 Dec 2014 (Local Time) from EHRD Reporting Station
Broken Clouds Broken Clouds  
Wind Chill: 45°   Ceiling: 1000
Heat Index: 48°   Visibility: 6mi
Dew Point: 46°   Wind: 8mph
Humidity: 93%   Direction: 270°W
Pressure: 29.83"   Gusts: NA
Location:  51.87°N, 4.66°E
Report Text: EHRD 191055Z AUTO 27007KT 240V310 9999 SCT008 BKN010 BKN012SCT015CB 09/08 Q1010 BECMG 29016G26KT SCT010 BKN030
Loading
Personal Weather Stations






























Interactive Weather Map New forecast layout! Learn more

10-Day Weather Forecast

Advertisements
Track Severe Weather on mobile